Fillmore, UT (84631)

6:53 PM MDT on May 28, 2015 (GMT -0600)
MesoWest | | Change Station
CLOSE
Current Station
Personal Weather Station
Location: Fillmore, UT
Elevation: 4806 ft
Nearby Weather Stations

Elev 4806 ft 38.83 °N, 112.67 °W | Updated 53 minutes ago

Overcast
Overcast
59 °F
Feels Like 59 °F
N
8
Wind Variable Wind from NE
Gusts 12.0 mph

Today
High -- | Low -- °F
--% Chance of Precip.
Yesterday
High -- | Low -- °F
Precip. -- in
6:08 AM 8:47 PM
Waxing Gibbous, 79% visible
Pressure 29.99 in
Visibility 10.0 miles
Clouds Few 3500 ft
Mostly Cloudy 10000 ft
Dew Point 50 °F
Humidity 71%
Rainfall in
Snow Depth Not available.
UV 2 out of 12
Pollen 6.30 out of 12
Air Quality Not available.
Flu Activity Sporadic
METAR KMLF 282352Z AUTO 05006KT 10SM FEW035 BKN100 19/09 A3010 RMK AO2 LTG DSNT SW RAE14B22E36 TSE12 SLP156 P0005 60008 T01940089 10244 20172 53007

More Conditions Fewer Conditions

Pressure 29.99 in
Visibility 10.0 miles
Clouds Few 3500 ft
Mostly Cloudy 10000 ft
Dew Point 50 °F
Humidity 71%
Rainfall in
Snow Depth Not available.
UV 2 out of 12
Pollen 6.30 out of 12
Air Quality Not available.
Flu Activity Sporadic
METAR KMLF 282352Z AUTO 05006KT 10SM FEW035 BKN100 19/09 A3010 RMK AO2 LTG DSNT SW RAE14B22E36 TSE12 SLP156 P0005 60008 T01940089 10244 20172 53007

More Conditions Fewer Conditions

10-Day Weather Forecast

Almanac

Astronomy

May. 28, 2015 Rise Set
Actual Time
Civil Twilight
Nautical Twilight
Astronomical Twilight
Moon
Length of Visible Light
Length of Day
Tomorrow will be .
, % of the Moon is Illuminated

Today's Extremes

State Highs State Lows

Community

WunderPhotos

Upload Photos

1,825,100 photos uploaded!

WunderBlogs® & News

Nearby

Air Quality

  Air Quality AQ Index Pollutant
Not available.

Snow Depth

Station Depth Elevation

Earthquake Activity

City Distance Mag. Time & Date
Minimum magnitude displayed is 2.5.

Coastal Water Temperatures

Place Temperature

Stations

Nearby Weather Stations

Station Location Temp. Windchill Dew Point Humidity Wind Precip. Elev Updated Type